Time;durP1;ratioP1;P1;durP2;ratioP2;P2;SDS_P1;SDS_P2;PMS_P1;PMS_P2;Temp;Humidity;BMP_temperature;BMP_pressure;BME280_temperature;BME280_humidity;BME280_pressure;Samples;Min_cycle;Max_cycle;Signal;HPM_P1;HPM_P2
2022/01/15 00:01:09;;;;;;;27.42;14.02;;;;;;;3.56;87.32;102249.09;5004461;28;20041;-76
2022/01/15 00:03:36;;;;;;;24.95;14.13;;;;;;;3.53;87.23;102255.09;4984129;28;20042;-76
2022/01/15 00:06:03;;;;;;;26.08;13.98;;;;;;;3.47;87.73;102242.44;4985654;28;20054;-76
2022/01/15 00:08:30;;;;;;;22.52;13.70;;;;;;;3.46;87.36;102247.13;5003756;28;20076;-77
2022/01/15 00:10:57;;;;;;;33.05;15.75;;;;;;;3.46;87.54;102238.06;4999989;28;20072;-77
2022/01/15 00:13:28;;;;;;;23.88;15.13;;;;;;;3.45;87.61;102229.03;5002926;28;20048;-77
2022/01/15 00:16:34;;;;;;;26.60;13.00;;;;;;;3.45;87.30;102226.28;4982884;28;20388;-76
2022/01/15 00:19:04;;;;;;;28.85;13.95;;;;;;;3.51;87.32;102229.91;5000631;28;20073;-76
2022/01/15 00:21:31;;;;;;;23.05;14.15;;;;;;;3.46;86.92;102218.91;5000098;28;20044;-76
2022/01/15 00:23:58;;;;;;;19.58;13.45;;;;;;;3.44;87.03;102226.56;5001219;28;20049;-76
2022/01/15 00:26:25;;;;;;;30.02;15.43;;;;;;;3.40;86.98;102219.94;5002380;28;20118;-76
2022/01/15 00:28:52;;;;;;;25.92;14.90;;;;;;;3.39;87.33;102219.13;4984105;28;20038;-76
2022/01/15 00:31:19;;;;;;;27.02;15.32;;;;;;;3.39;87.07;102212.84;5002727;28;20469;-76
2022/01/15 00:33:46;;;;;;;23.42;14.35;;;;;;;3.41;87.54;102199.72;4984295;28;20048;-76
2022/01/15 00:36:15;;;;;;;26.20;14.73;;;;;;;3.40;87.18;102201.63;5000899;28;20492;-76
2022/01/15 00:38:42;;;;;;;18.42;12.57;;;;;;;3.39;87.25;102190.94;5006052;28;20068;-80
2022/01/15 00:41:09;;;;;;;23.33;14.30;;;;;;;3.37;87.12;102198.56;5005813;28;20045;-77
2022/01/15 00:43:36;;;;;;;21.17;13.77;;;;;;;3.34;86.99;102185.41;5008746;28;20045;-77
2022/01/15 00:46:03;;;;;;;26.50;14.23;;;;;;;3.28;86.93;102190.03;5010758;28;20137;-76
2022/01/15 00:48:30;;;;;;;26.05;15.75;;;;;;;3.23;86.98;102183.69;5009529;28;20034;-77
2022/01/15 00:50:56;;;;;;;34.42;16.60;;;;;;;3.21;86.79;102183.09;5011067;28;20046;-77
2022/01/15 00:53:23;;;;;;;32.28;18.65;;;;;;;3.17;87.48;102174.63;4993617;28;20492;-78
2022/01/15 00:55:50;;;;;;;36.17;19.13;;;;;;;3.16;87.61;102169.38;5012162;28;20070;-77
2022/01/15 00:58:17;;;;;;;33.40;20.20;;;;;;;3.11;87.68;102174.81;4995018;28;20034;-77
2022/01/15 01:00:45;;;;;;;33.67;19.38;;;;;;;3.11;87.54;102163.88;5011541;28;20070;-77
2022/01/15 01:03:12;;;;;;;35.75;19.95;;;;;;;3.12;87.66;102168.28;5004601;28;20049;-77
2022/01/15 01:05:39;;;;;;;31.65;18.13;;;;;;;3.14;87.53;102163.34;4988846;28;20413;-77
2022/01/15 01:08:05;;;;;;;30.92;18.90;;;;;;;3.12;87.44;102157.31;4987828;28;20046;-77
2022/01/15 01:13:40;;;;;;;29.58;17.40;;;;;;;3.11;87.42;102158.41;5008401;28;20044;-77
2022/01/15 01:24:10;;;;;;;27.92;16.92;;;;;;;3.03;87.26;102140.56;5006692;28;20054;-76
2022/01/15 01:26:55;;;;;;;26.10;16.15;;;;;;;3.00;87.26;102136.44;4971995;28;20392;-77
2022/01/15 01:34:31;;;;;;;28.67;16.95;;;;;;;3.03;87.70;102118.66;4987116;28;21865;-77
2022/01/15 01:39:38;;;;;;;34.42;20.33;;;;;;;3.15;88.06;102099.34;5006556;28;20037;-76
2022/01/15 01:45:10;;;;;;;29.65;16.80;;;;;;;3.29;88.08;102092.31;5005631;28;20566;-77
2022/01/15 01:50:26;;;;;;;26.42;15.27;;;;;;;3.46;88.24;102092.97;5003987;28;20394;-76
2022/01/15 01:52:56;;;;;;;25.75;15.05;;;;;;;3.55;88.03;102091.38;5006670;28;20093;-77
2022/01/15 01:55:25;;;;;;;27.17;17.67;;;;;;;3.62;88.36;102091.97;4987498;28;20540;-77
2022/01/15 01:57:53;;;;;;;26.83;16.13;;;;;;;3.65;88.42;102083.22;4988373;28;20468;-77
2022/01/15 02:00:22;;;;;;;28.75;17.20;;;;;;;3.69;88.15;102073.38;5005695;28;20042;-77
2022/01/15 02:02:51;;;;;;;25.90;17.45;;;;;;;3.74;88.34;102076.13;5004741;28;20038;-77
2022/01/15 02:05:18;;;;;;;24.25;15.90;;;;;;;3.77;88.57;102072.03;5006940;28;20247;-77
2022/01/15 02:07:45;;;;;;;32.17;18.00;;;;;;;3.80;88.57;102075.06;5006418;28;20046;-78
2022/01/15 02:10:16;;;;;;;30.52;18.10;;;;;;;3.79;88.64;102073.41;4986610;28;20034;-77
2022/01/15 02:12:45;;;;;;;35.47;18.65;;;;;;;3.82;88.96;102081.09;5006143;28;20045;-77
2022/01/15 02:15:18;;;;;;;29.27;15.93;;;;;;;3.87;88.78;102070.16;5005116;28;20123;-78
2022/01/15 02:17:47;;;;;;;32.95;17.45;;;;;;;3.91;88.75;102068.53;5007004;28;20048;-77
2022/01/15 02:25:57;;;;;;;32.40;16.95;;;;;;;4.04;88.78;102053.50;5006731;28;20053;-77
2022/01/15 02:28:27;;;;;;;27.25;16.73;;;;;;;4.07;88.95;102045.59;5005387;28;22013;-78
2022/01/15 02:30:57;;;;;;;27.58;15.88;;;;;;;4.12;89.06;102040.13;5005634;28;20034;-77
2022/01/15 02:33:25;;;;;;;27.50;16.05;;;;;;;4.15;88.99;102045.06;5005554;28;20481;-77
2022/01/15 02:35:53;;;;;;;26.75;14.90;;;;;;;4.19;89.24;102040.66;5005776;28;20524;-77
2022/01/15 02:38:20;;;;;;;26.50;15.48;;;;;;;4.22;89.54;102029.16;5006223;28;20815;-77
2022/01/15 02:40:47;;;;;;;24.92;15.25;;;;;;;4.28;89.52;102032.75;5006095;28;20044;-78
2022/01/15 02:43:18;;;;;;;30.27;16.40;;;;;;;4.29;89.79;102029.72;4986132;28;20034;-78
2022/01/15 02:45:55;;;;;;;23.67;13.43;;;;;;;4.33;89.82;102030.00;4987025;28;20129;-78
2022/01/15 02:48:25;;;;;;;27.42;15.07;;;;;;;4.38;89.75;102020.94;5004043;28;20042;-78
2022/01/15 02:50:53;;;;;;;32.25;20.58;;;;;;;4.41;89.86;102009.44;5005919;28;20382;-77
2022/01/15 02:53:19;;;;;;;33.20;18.40;;;;;;;4.45;90.17;102011.34;5003115;28;20128;-77
2022/01/15 02:55:51;;;;;;;36.08;18.00;;;;;;;4.50;89.79;102014.09;5006599;28;20056;-78
2022/01/15 02:58:20;;;;;;;31.60;19.55;;;;;;;4.54;90.27;102011.63;5004085;28;20050;-77
2022/01/15 03:00:49;;;;;;;27.35;15.32;;;;;;;4.56;90.47;101999.28;5004880;28;20052;-78
2022/01/15 03:03:16;;;;;;;23.88;14.70;;;;;;;4.57;90.20;102002.88;5005300;28;20041;-77
2022/01/15 03:05:43;;;;;;;30.92;18.30;;;;;;;4.60;90.63;101999.59;5004414;28;20065;-78
2022/01/15 03:08:10;;;;;;;31.65;18.33;;;;;;;4.61;90.33;101995.72;5004862;28;20112;-78
2022/01/15 03:10:37;;;;;;;31.73;18.27;;;;;;;4.62;90.64;101987.22;4985641;28;20092;-78
2022/01/15 03:13:11;;;;;;;49.85;26.02;;;;;;;4.67;90.79;101994.63;5005697;28;20053;-78
2022/01/15 03:15:39;;;;;;;51.35;26.20;;;;;;;4.68;90.73;101997.13;5003311;28;20041;-78
2022/01/15 03:18:06;;;;;;;34.75;20.75;;;;;;;4.70;90.69;101985.84;5004194;28;20037;-78
2022/01/15 03:20:33;;;;;;;37.72;20.75;;;;;;;4.72;90.99;101986.38;5004022;28;20042;-78
2022/01/15 03:23:00;;;;;;;81.55;36.75;;;;;;;4.73;91.15;101983.38;5004119;28;20108;-78
2022/01/15 03:25:27;;;;;;;35.55;22.10;;;;;;;4.74;91.42;101978.69;5004585;28;20042;-77
2022/01/15 03:27:54;;;;;;;39.38;19.63;;;;;;;4.74;91.05;101976.78;5003849;28;20500;-77
2022/01/15 03:30:21;;;;;;;28.25;16.77;;;;;;;4.76;91.29;101979.28;5003823;28;20069;-77
2022/01/15 03:32:48;;;;;;;34.95;16.20;;;;;;;4.76;91.49;101973.78;5004366;28;20092;-78
2022/01/15 03:35:16;;;;;;;31.40;15.90;;;;;;;4.80;91.17;101972.13;5004637;28;20034;-77
2022/01/15 03:37:43;;;;;;;43.65;21.85;;;;;;;4.81;91.29;101971.84;5003293;28;20042;-77
2022/01/15 03:40:13;;;;;;;52.65;25.35;;;;;;;4.83;91.38;101969.66;4968017;28;20041;-78
2022/01/15 03:42:40;;;;;;;35.97;18.55;;;;;;;4.83;91.46;101968.81;5004424;28;20050;-78
2022/01/15 03:45:07;;;;;;;28.05;15.90;;;;;;;4.83;91.68;101968.81;5000753;28;20057;-78
2022/01/15 03:47:34;;;;;;;32.85;17.05;;;;;;;4.81;91.50;101954.56;4985396;28;20050;-77
2022/01/15 03:50:01;;;;;;;25.23;16.27;;;;;;;4.81;91.71;101960.88;5003594;28;20048;-77
2022/01/15 03:52:28;;;;;;;34.88;17.70;;;;;;;4.83;91.78;101957.84;5004561;28;20825;-77
2022/01/15 03:54:55;;;;;;;28.67;15.90;;;;;;;4.85;91.62;101963.88;4985599;28;20038;-78
2022/01/15 03:57:22;;;;;;;24.33;14.65;;;;;;;4.85;91.44;101945.50;5004134;28;20042;-78
2022/01/15 03:59:49;;;;;;;25.73;15.95;;;;;;;4.85;92.05;101950.16;5002345;28;20034;-77
2022/01/15 04:02:16;;;;;;;27.48;14.18;;;;;;;4.86;91.95;101935.34;4983827;28;20046;-77
2022/01/15 04:04:43;;;;;;;22.90;13.40;;;;;;;4.87;91.86;101934.25;5004657;28;20124;-78
2022/01/15 04:07:10;;;;;;;24.45;15.10;;;;;;;4.88;92.09;101938.63;5002982;28;20034;-77
2022/01/15 04:09:36;;;;;;;31.92;16.83;;;;;;;4.90;91.85;101940.00;4984140;28;20045;-77
2022/01/15 04:12:03;;;;;;;24.98;15.45;;;;;;;4.91;91.97;101932.59;4985081;28;20034;-77
2022/01/15 04:14:30;;;;;;;24.05;15.20;;;;;;;4.93;91.84;101919.41;5004623;28;20513;-77
2022/01/15 04:16:57;;;;;;;27.33;16.23;;;;;;;4.96;91.82;101929.00;5002616;28;20409;-77
2022/01/15 04:19:24;;;;;;;26.13;15.30;;;;;;;4.97;92.22;101919.69;5004122;28;20125;-77
2022/01/15 04:21:51;;;;;;;27.48;14.30;;;;;;;4.99;92.27;101923.78;5004054;28;20068;-78
2022/01/15 04:24:20;;;;;;;31.58;15.07;;;;;;;5.01;92.36;101916.09;5004019;28;20042;-78
2022/01/15 04:26:48;;;;;;;33.38;15.45;;;;;;;5.02;92.19;101917.75;5002996;28;20759;-77
2022/01/15 04:29:15;;;;;;;35.97;16.15;;;;;;;5.04;92.45;101910.03;5003516;28;20026;-77
2022/01/15 04:31:49;;;;;;;24.17;14.13;;;;;;;5.06;92.51;101905.09;5002202;28;20085;-77
2022/01/15 04:34:21;;;;;;;26.27;13.38;;;;;;;5.09;92.90;101901.78;5004292;28;20067;-77
2022/01/15 04:36:49;;;;;;;;;;;;;;;5.11;92.62;101901.53;4986628;28;20038;-77
2022/01/15 04:39:15;;;;;;;21.15;13.32;;;;;;;5.12;92.66;101893.00;4983962;28;20020;-77
2022/01/15 04:41:42;;;;;;;28.40;16.30;;;;;;;5.14;92.75;101882.56;4984957;28;20038;-77
2022/01/15 04:44:09;;;;;;;25.98;15.45;;;;;;;5.17;92.85;101889.41;4986365;28;20038;-77
2022/01/15 04:46:38;;;;;;;27.90;15.35;;;;;;;5.18;92.82;101880.91;5001272;28;20042;-78
2022/01/15 04:49:06;;;;;;;25.10;15.15;;;;;;;5.20;92.69;101880.59;5001839;28;20064;-77
2022/01/15 04:51:34;;;;;;;29.42;16.50;;;;;;;5.21;92.64;101874.84;5003170;28;20145;-77
2022/01/15 04:54:01;;;;;;;27.77;15.57;;;;;;;5.21;92.96;101885.84;4984029;28;20128;-77
2022/01/15 04:56:28;;;;;;;28.98;17.75;;;;;;;5.23;93.03;101885.53;5003859;28;20848;-78
2022/01/15 04:58:55;;;;;;;29.52;17.73;;;;;;;5.22;93.12;101879.22;5002297;28;20366;-78
2022/01/15 05:01:22;;;;;;;35.15;17.02;;;;;;;5.23;93.09;101875.38;5001423;28;20077;-78
2022/01/15 05:03:49;;;;;;;33.35;18.00;;;;;;;5.24;93.25;101876.22;4983273;28;20084;-77
2022/01/15 05:06:17;;;;;;;30.55;17.40;;;;;;;5.24;93.34;101868.78;5002829;28;20046;-77
2022/01/15 05:08:45;;;;;;;31.27;17.63;;;;;;;5.24;93.20;101863.28;5003692;28;20042;-77
2022/01/15 05:11:28;;;;;;;34.05;18.75;;;;;;;5.26;93.43;101858.34;5000379;28;20141;-77
2022/01/15 05:13:55;;;;;;;40.95;18.33;;;;;;;5.26;93.39;101858.34;5002385;28;20041;-77
2022/01/15 05:16:22;;;;;;;25.35;15.68;;;;;;;5.28;93.27;101850.66;5003259;28;20069;-77
2022/01/15 05:18:49;;;;;;;31.42;18.38;;;;;;;5.29;93.24;101840.50;5002790;28;20089;-78
2022/01/15 05:21:16;;;;;;;37.25;21.30;;;;;;;5.32;93.85;101840.72;4999761;28;20354;-77
2022/01/15 05:23:42;;;;;;;36.60;19.20;;;;;;;5.32;93.54;101835.22;5005048;28;20046;-77
2022/01/15 05:26:11;;;;;;;33.63;18.05;;;;;;;5.35;93.77;101834.66;5005476;28;20045;-77
2022/01/15 05:28:38;;;;;;;33.75;19.67;;;;;;;5.38;93.83;101834.09;5006610;28;20100;-77
2022/01/15 05:31:05;;;;;;;28.63;18.63;;;;;;;5.41;93.78;101838.22;5005944;28;20034;-78
2022/01/15 05:33:33;;;;;;;38.78;19.90;;;;;;;5.42;94.27;101835.19;5007084;28;20045;-77
2022/01/15 05:36:00;;;;;;;32.38;16.88;;;;;;;5.43;94.20;101842.31;5006197;28;20038;-77
2022/01/15 05:38:29;;;;;;;32.35;17.00;;;;;;;5.46;94.25;101851.91;5006655;28;20053;-77
2022/01/15 05:40:56;;;;;;;30.80;17.75;;;;;;;5.47;94.25;101843.41;4986321;28;20045;-77
2022/01/15 05:43:23;;;;;;;33.08;18.73;;;;;;;5.49;94.63;101845.84;5006883;28;20116;-78
2022/01/15 05:45:50;;;;;;;38.10;24.77;;;;;;;5.50;94.45;101842.84;5006034;28;20486;-77
2022/01/15 05:48:17;;;;;;;35.53;19.80;;;;;;;5.51;94.82;101838.97;5005491;28;20033;-77
2022/01/15 05:50:44;;;;;;;30.90;17.92;;;;;;;5.53;95.10;101836.75;5004302;28;20045;-78
2022/01/15 05:53:10;;;;;;;139.95;73.45;;;;;;;5.55;95.26;101839.22;5004923;28;20097;-77
2022/01/15 05:55:37;;;;;;;82.10;42.80;;;;;;;5.60;95.07;101830.13;5004581;28;20390;-77
2022/01/15 05:58:06;;;;;;;158.15;78.65;;;;;;;5.58;95.34;101830.41;5005257;28;20045;-77
2022/01/15 06:00:34;;;;;;;146.77;69.78;;;;;;;5.60;95.01;101830.94;5005816;28;20048;-77
2022/01/15 06:03:01;;;;;;;91.05;42.83;;;;;;;5.62;95.31;101827.91;5006259;28;20045;-78
2022/01/15 06:05:28;;;;;;;62.90;32.20;;;;;;;5.63;95.01;101824.06;5003063;28;20488;-77
2022/01/15 06:07:55;;;;;;;43.13;24.55;;;;;;;5.63;94.98;101818.56;5003352;28;20045;-77
2022/01/15 06:10:21;;;;;;;43.90;23.80;;;;;;;5.62;95.40;101816.91;5006243;28;20034;-78
2022/01/15 06:12:48;;;;;;;38.88;22.92;;;;;;;5.61;95.39;101820.78;4987800;28;20145;-77
2022/01/15 06:15:16;;;;;;;41.70;24.48;;;;;;;5.61;95.44;101820.78;5005527;28;20116;-78
2022/01/15 06:17:43;;;;;;;39.35;22.45;;;;;;;5.62;95.37;101819.66;5004597;28;20709;-77
2022/01/15 06:20:12;;;;;;;42.45;23.30;;;;;;;5.61;95.74;101816.13;5004293;28;20375;-78
2022/01/15 06:22:39;;;;;;;40.63;22.83;;;;;;;5.62;95.60;101817.75;5003145;28;20060;-78
2022/01/15 06:25:06;;;;;;;47.05;24.35;;;;;;;5.64;95.76;101806.47;5005270;28;20053;-78
2022/01/15 06:27:33;;;;;;;42.28;24.73;;;;;;;5.66;96.17;101801.50;5002991;28;20188;-78
2022/01/15 06:30:00;;;;;;;43.78;24.33;;;;;;;5.66;96.13;101802.34;4988570;28;20046;-77
2022/01/15 06:32:28;;;;;;;50.38;26.52;;;;;;;5.68;95.98;101800.13;5004773;28;20382;-77
2022/01/15 06:34:55;;;;;;;41.58;24.27;;;;;;;5.69;95.86;101790.78;5001228;28;20056;-77
2022/01/15 06:37:22;;;;;;;42.88;24.75;;;;;;;5.71;96.01;101788.56;4987923;28;20136;-78
2022/01/15 06:39:49;;;;;;;44.15;25.23;;;;;;;5.73;96.27;101785.50;5004459;28;20030;-78
2022/01/15 06:42:15;;;;;;;52.45;26.13;;;;;;;5.74;96.25;101784.41;5001579;28;20129;-78
2022/01/15 06:44:42;;;;;;;48.40;27.30;;;;;;;5.75;96.47;101777.78;5005718;28;20048;-77
2022/01/15 06:47:09;;;;;;;47.70;27.40;;;;;;;5.76;96.45;101772.03;5005408;28;20050;-77
2022/01/15 06:49:37;;;;;;;54.33;28.08;;;;;;;5.76;96.64;101773.94;5004012;28;20077;-77
2022/01/15 06:52:04;;;;;;;55.08;28.65;;;;;;;5.77;96.88;101764.59;5005817;28;20038;-77
2022/01/15 06:54:31;;;;;;;59.30;31.40;;;;;;;5.77;96.90;101759.91;5005216;28;20046;-77
2022/01/15 06:56:58;;;;;;;55.63;29.77;;;;;;;5.77;96.97;101751.66;5002855;28;20463;-78
2022/01/15 06:59:24;;;;;;;67.50;32.40;;;;;;;5.79;96.79;101740.41;4987005;28;20081;-77
2022/01/15 07:01:51;;;;;;;52.10;31.20;;;;;;;5.78;96.98;101739.56;5004787;28;20042;-77
2022/01/15 07:04:18;;;;;;;62.33;32.13;;;;;;;5.80;96.95;101742.06;5004360;28;20515;-77
2022/01/15 07:06:45;;;;;;;62.53;33.13;;;;;;;5.79;96.97;101738.47;4985671;28;20048;-77
2022/01/15 07:09:11;;;;;;;66.40;34.50;;;;;;;5.80;96.93;101736.56;5004553;28;20153;-77
2022/01/15 07:11:38;;;;;;;69.47;33.97;;;;;;;5.80;97.15;101736.56;4987860;28;20041;-78
2022/01/15 07:14:05;;;;;;;58.08;30.80;;;;;;;5.80;97.33;101726.38;5004638;28;20040;-78
2022/01/15 07:16:32;;;;;;;63.67;32.92;;;;;;;5.81;97.60;101727.19;4969478;28;20797;-78
2022/01/15 07:18:58;;;;;;;67.68;31.50;;;;;;;5.82;97.33;101723.34;5003721;28;20045;-78
2022/01/15 07:21:25;;;;;;;58.63;31.35;;;;;;;5.83;97.83;101719.47;5004104;28;20055;-77
2022/01/15 07:23:52;;;;;;;63.90;30.98;;;;;;;5.83;97.80;101719.47;5004159;28;20465;-78
2022/01/15 07:26:18;;;;;;;56.67;28.83;;;;;;;5.83;97.67;101711.22;5004132;28;20058;-78
2022/01/15 07:28:45;;;;;;;57.28;30.08;;;;;;;5.84;97.74;101721.94;5005336;28;20049;-77
2022/01/15 07:31:12;;;;;;;54.65;30.60;;;;;;;5.86;97.77;101724.41;5003474;28;20040;-77
2022/01/15 07:33:39;;;;;;;59.72;31.33;;;;;;;5.86;97.76;101718.94;5004541;28;20046;-78
2022/01/15 07:36:06;;;;;;;57.25;29.02;;;;;;;5.87;97.89;101717.81;5004818;28;20080;-78
2022/01/15 07:38:33;;;;;;;50.67;29.25;;;;;;;5.88;98.12;101716.69;5004721;28;20490;-78
2022/01/15 07:40:59;;;;;;;52.17;29.15;;;;;;;5.88;98.01;101713.94;5003656;28;20050;-78
2022/01/15 07:43:27;;;;;;;54.60;30.90;;;;;;;5.88;97.91;101716.69;4986937;28;20374;-78
2022/01/15 07:45:54;;;;;;;53.60;30.40;;;;;;;5.89;97.88;101707.34;4984889;28;20059;-78
2022/01/15 07:48:21;;;;;;;56.22;31.95;;;;;;;5.90;98.06;101714.50;5000869;28;20038;-78
2022/01/15 07:50:52;;;;;;;58.53;31.60;;;;;;;5.90;98.34;101709.00;5002662;28;20054;-77
2022/01/15 07:53:19;;;;;;;56.33;27.80;;;;;;;5.91;98.25;101718.88;5004468;28;20046;-78
2022/01/15 07:55:45;;;;;;;66.40;30.42;;;;;;;5.92;97.97;101712.28;5002622;28;20093;-77
2022/01/15 07:58:12;;;;;;;55.42;28.45;;;;;;;5.92;98.17;101709.53;5004867;28;20049;-78
2022/01/15 08:00:41;;;;;;;62.63;29.35;;;;;;;5.92;98.20;101713.09;4984269;28;20042;-77
2022/01/15 08:03:08;;;;;;;56.85;29.63;;;;;;;5.94;98.40;101721.03;5002021;28;20084;-77
2022/01/15 08:05:35;;;;;;;60.80;31.02;;;;;;;5.95;98.43;101717.19;5003625;28;20050;-78
2022/01/15 08:08:02;;;;;;;59.20;29.83;;;;;;;5.95;98.32;101714.44;5004637;28;20045;-78
2022/01/15 08:10:28;;;;;;;66.20;31.05;;;;;;;5.95;98.59;101711.69;5003454;28;20053;-77
2022/01/15 08:12:55;;;;;;;60.53;30.05;;;;;;;5.95;98.59;101708.94;5004005;28;20030;-77
2022/01/15 08:15:23;;;;;;;66.80;31.40;;;;;;;5.97;98.54;101709.47;4984855;28;20073;-78
2022/01/15 08:17:49;;;;;;;59.25;31.80;;;;;;;5.99;98.31;101712.75;5003235;28;20381;-78
2022/01/15 08:20:16;;;;;;;60.47;32.45;;;;;;;5.99;98.42;101712.75;4984613;28;20049;-78
2022/01/15 08:22:45;;;;;;;61.63;31.15;;;;;;;6.00;98.63;101719.88;4986202;28;20061;-77
2022/01/15 08:25:16;;;;;;;64.78;31.48;;;;;;;6.00;98.75;101715.22;4967647;28;20049;-76
2022/01/15 08:27:43;;;;;;;65.00;32.40;;;;;;;6.01;98.92;101716.84;5001198;28;20054;-77
2022/01/15 08:30:10;;;;;;;66.00;30.20;;;;;;;6.02;98.95;101718.47;4983342;28;20488;-78
2022/01/15 08:32:37;;;;;;;64.22;30.10;;;;;;;6.03;98.92;101708.31;5003160;28;20486;-78
2022/01/15 08:35:08;;;;;;;68.55;30.73;;;;;;;6.03;99.17;101711.06;5003755;28;20050;-77
2022/01/15 08:37:38;;;;;;;64.35;31.38;;;;;;;6.04;99.31;101702.50;4984518;28;20046;-78
2022/01/15 08:40:07;;;;;;;72.35;33.22;;;;;;;6.04;99.16;101713.50;5001739;28;20056;-77
2022/01/15 08:42:35;;;;;;;62.05;31.00;;;;;;;6.04;99.00;101704.44;5000673;28;20229;-77
2022/01/15 08:45:05;;;;;;;73.60;35.00;;;;;;;6.04;99.23;101701.69;5002074;28;20125;-78
2022/01/15 08:47:32;;;;;;;68.25;34.38;;;;;;;6.06;99.35;101707.75;5003129;28;20121;-78
2022/01/15 08:50:00;;;;;;;70.03;34.05;;;;;;;6.05;99.25;101706.09;4984295;28;20057;-78
2022/01/15 08:52:27;;;;;;;80.22;34.47;;;;;;;6.08;99.74;101711.00;4984406;28;20587;-78
2022/01/15 08:54:55;;;;;;;74.60;33.67;;;;;;;6.09;99.20;101709.88;5002396;28;20045;-78
2022/01/15 08:57:21;;;;;;;82.00;36.10;;;;;;;6.10;99.48;101703.28;5003402;28;20401;-78
2022/01/15 08:59:48;;;;;;;83.63;35.33;;;;;;;6.10;99.61;101700.53;5006409;28;20053;-78
2022/01/15 09:02:15;;;;;;;80.85;34.33;;;;;;;6.11;99.75;101710.44;5005357;28;20064;-78
2022/01/15 09:04:42;;;;;;;87.35;38.35;;;;;;;6.12;99.98;101706.53;5007760;28;20042;-77
2022/01/15 09:07:10;;;;;;;83.20;38.00;;;;;;;6.12;99.97;101696.38;5003967;28;20362;-77
2022/01/15 09:09:37;;;;;;;82.13;34.83;;;;;;;6.14;99.92;101707.88;4985201;28;20054;-78
2022/01/15 09:12:04;;;;;;;88.28;34.78;;;;;;;6.14;100.00;101710.63;4989367;28;20048;-77
2022/01/15 09:14:30;;;;;;;81.68;37.65;;;;;;;6.14;99.97;101710.63;5006822;28;20044;-77
2022/01/15 09:16:57;;;;;;;89.43;37.78;;;;;;;6.16;100.00;101710.38;5007204;28;20045;-77
2022/01/15 09:19:24;;;;;;;83.57;35.33;;;;;;;6.17;100.00;101714.75;5007384;28;20041;-77
2022/01/15 09:21:51;;;;;;;76.78;33.60;;;;;;;6.18;100.00;101710.88;5007156;28;20034;-78
2022/01/15 09:24:17;;;;;;;83.75;33.60;;;;;;;6.18;100.00;101721.88;4989669;28;20046;-77
2022/01/15 09:26:48;;;;;;;84.00;35.60;;;;;;;6.18;100.00;101710.06;5006036;28;20053;-78
2022/01/15 09:32:04;;;;;;;75.03;34.72;;;;;;;6.17;100.00;101709.25;5007862;28;20050;-77
2022/01/15 09:34:34;;;;;;;82.68;33.22;;;;;;;6.16;100.00;101713.13;5007157;28;20037;-77
2022/01/15 09:37:04;;;;;;;74.30;32.80;;;;;;;6.16;100.00;101713.13;4987585;28;20042;-78
2022/01/15 09:39:31;;;;;;;75.55;33.00;;;;;;;6.16;100.00;101713.13;5005129;28;20100;-79
2022/01/15 09:41:58;;;;;;;67.10;31.65;;;;;;;6.16;99.94;101710.38;5006527;28;20034;-76
2022/01/15 09:44:25;;;;;;;91.50;50.95;;;;;;;6.17;99.99;101720.22;4988231;28;20053;-76
2022/01/15 09:46:53;;;;;;;59.90;31.38;;;;;;;6.17;100.00;101708.44;4987728;28;20045;-76
2022/01/15 09:49:23;;;;;;;77.20;30.20;;;;;;;6.18;100.00;101710.88;4986898;28;20084;-76
2022/01/15 09:51:50;;;;;;;73.25;32.88;;;;;;;6.21;100.00;101704.81;5006921;28;20064;-76
2022/01/15 09:54:18;;;;;;;61.35;28.08;;;;;;;6.24;100.00;101711.66;5005573;28;20048;-76
2022/01/15 09:56:46;;;;;;;56.08;26.08;;;;;;;6.25;100.00;101703.09;5005318;28;20125;-76
2022/01/15 09:59:14;;;;;;;49.95;23.02;;;;;;;6.28;100.00;101694.25;4987427;28;20599;-78
2022/01/15 10:01:42;;;;;;;46.63;22.02;;;;;;;6.30;100.00;101686.53;4988297;28;20081;-79
2022/01/15 10:04:09;;;;;;;42.25;20.08;;;;;;;6.32;100.00;101695.34;4987332;28;20038;-79
2022/01/15 10:06:36;;;;;;;38.65;20.63;;;;;;;6.34;100.00;101698.59;5006515;28;20053;-78
2022/01/15 10:09:08;;;;;;;32.85;16.38;;;;;;;6.34;100.00;101692.28;5007402;28;20033;-78
2022/01/15 10:11:52;;;;;;;40.05;19.20;;;;;;;6.35;100.00;101681.00;5002984;28;20048;-78
2022/01/15 10:14:27;;;;;;;33.30;17.25;;;;;;;6.38;100.00;101677.63;4987427;28;20034;-78
2022/01/15 10:16:56;;;;;;;31.83;15.50;;;;;;;6.42;100.00;101680.63;5007824;28;20065;-78
2022/01/15 10:19:34;;;;;;;29.38;15.25;;;;;;;6.44;100.00;101681.13;4974275;28;20073;-78
2022/01/15 10:22:34;;;;;;;29.33;16.27;;;;;;;6.47;100.00;101681.38;5007109;28;20029;-78
2022/01/15 10:25:07;;;;;;;30.42;14.32;;;;;;;6.49;100.00;101687.41;4975726;28;20095;-78
2022/01/15 10:27:39;;;;;;;32.33;16.73;;;;;;;6.51;100.00;101682.41;5004147;28;20064;-78
2022/01/15 10:30:18;;;;;;;36.72;17.35;;;;;;;6.52;100.00;101677.72;5008053;28;20048;-79
2022/01/15 10:32:58;;;;;;;43.15;20.15;;;;;;;6.57;100.00;101677.66;4992456;28;20076;-81
2022/01/15 10:35:31;;;;;;;33.88;17.73;;;;;;;6.59;100.00;101673.50;4988623;28;20042;-78
2022/01/15 10:38:07;;;;;;;34.67;17.92;;;;;;;6.65;100.00;101677.00;5007953;28;20042;-78
2022/01/15 10:40:40;;;;;;;29.73;16.08;;;;;;;6.68;100.00;101668.16;5008448;28;20046;-79
2022/01/15 10:43:09;;;;;;;24.38;13.75;;;;;;;6.72;100.00;101672.75;5007207;28;20544;-77
2022/01/15 10:45:48;;;;;;;24.13;13.93;;;;;;;6.79;100.00;101674.34;5004503;28;20053;-76
2022/01/15 10:48:25;;;;;;;26.05;13.75;;;;;;;6.85;100.00;101675.91;4985321;28;20556;-75
2022/01/15 10:50:57;;;;;;;26.63;14.65;;;;;;;6.87;100.00;101673.66;5003409;28;20433;-75
2022/01/15 10:53:38;;;;;;;33.80;15.63;;;;;;;6.87;100.00;101668.16;5006207;28;20077;-75
2022/01/15 10:56:08;;;;;;;26.15;14.63;;;;;;;6.87;100.00;101668.16;5003737;28;20064;-76
2022/01/15 10:58:36;;;;;;;25.30;14.13;;;;;;;6.87;100.00;101673.66;5000613;28;20038;-75
2022/01/15 11:01:04;;;;;;;24.67;13.95;;;;;;;6.86;100.00;101672.06;5003333;28;20096;-76
2022/01/15 11:03:45;;;;;;;23.95;15.35;;;;;;;6.85;99.91;101667.66;5004816;28;20131;-75
2022/01/15 11:06:20;;;;;;;21.17;13.55;;;;;;;6.84;99.80;101669.56;5002417;28;20030;-75
2022/01/15 11:08:50;;;;;;;24.92;14.15;;;;;;;6.85;99.68;101670.41;4985703;28;20045;-75
2022/01/15 11:11:19;;;;;;;20.40;12.02;;;;;;;6.84;99.65;101669.56;5002954;28;20378;-75
2022/01/15 11:13:46;;;;;;;20.33;12.40;;;;;;;6.84;99.55;101664.06;5004628;28;20045;-75
2022/01/15 11:16:16;;;;;;;25.58;14.45;;;;;;;6.87;99.28;101662.66;5002532;28;20573;-76
2022/01/15 11:18:44;;;;;;;24.83;14.52;;;;;;;6.88;99.37;101667.88;4982944;28;20052;-76
2022/01/15 11:21:18;;;;;;;22.63;13.73;;;;;;;6.88;99.31;101670.63;5000928;28;20058;-76
2022/01/15 11:23:46;;;;;;;24.00;13.15;;;;;;;6.91;99.03;101663.72;5003448;28;20485;-76
2022/01/15 11:26:23;;;;;;;23.60;14.40;;;;;;;6.91;99.03;101661.75;5003744;28;20092;-76
2022/01/15 11:28:53;;;;;;;29.05;15.70;;;;;;;6.93;98.94;101661.47;4983805;28;20065;-76
2022/01/15 11:31:24;;;;;;;23.98;13.90;;;;;;;6.95;98.74;101662.00;5001549;28;20408;-75
2022/01/15 11:33:58;;;;;;;27.05;14.32;;;;;;;6.96;98.83;101655.38;4983810;28;20045;-76
2022/01/15 11:36:32;;;;;;;26.00;16.92;;;;;;;6.98;98.69;101647.63;4983212;28;20121;-76
2022/01/15 11:39:02;;;;;;;25.58;16.10;;;;;;;7.02;98.75;101648.66;4982400;28;20081;-76
2022/01/15 11:41:29;;;;;;;34.03;17.27;;;;;;;7.06;98.60;101646.94;4965893;28;20048;-76
2022/01/15 11:43:57;;;;;;;22.48;14.10;;;;;;;7.07;98.52;101648.59;4949987;28;20670;-76
2022/01/15 11:46:31;;;;;;;21.60;13.00;;;;;;;7.10;98.53;101651.56;4965872;28;20060;-75
2022/01/15 11:49:28;;;;;;;20.65;14.05;;;;;;;7.14;98.39;101638.00;4982173;28;20061;-75
2022/01/15 11:52:14;;;;;;;21.73;13.13;;;;;;;7.18;98.17;101625.25;4968314;28;20520;-77
2022/01/15 11:55:05;;;;;;;17.58;11.27;;;;;;;7.21;97.99;101631.00;4965160;28;20056;-76
2022/01/15 11:57:45;;;;;;;17.48;11.70;;;;;;;7.22;97.92;101629.88;4964637;28;20077;-76